Time;durP1;ratioP1;P1;durP2;ratioP2;P2;SDS_P1;SDS_P2;PMS_P1;PMS_P2;Temp;Humidity;BMP_temperature;BMP_pressure;BME280_temperature;BME280_humidity;BME280_pressure;Samples;Min_cycle;Max_cycle;Signal;HPM_P1;HPM_P2
2021/09/15 00:02:23;;;;;;;13.50;9.13;;;;;;;19.09;95.27;98537.41;5053605;28;20040;-71
2021/09/15 00:04:49;;;;;;;12.20;8.45;;;;;;;19.08;95.68;98535.78;5038436;28;20059;-71
2021/09/15 00:07:14;;;;;;;10.02;8.25;;;;;;;19.17;97.04;98545.97;5034188;28;20439;-70
2021/09/15 00:09:39;;;;;;;10.32;8.50;;;;;;;19.11;96.93;98540.72;5051400;28;20093;-70
2021/09/15 00:12:05;;;;;;;12.60;8.05;;;;;;;19.13;96.55;98550.34;5051964;28;20032;-71
2021/09/15 00:14:30;;;;;;;12.50;8.30;;;;;;;19.12;96.50;98545.13;5051583;28;20031;-71
2021/09/15 00:16:56;;;;;;;11.40;8.32;;;;;;;19.13;96.73;98530.31;5051923;28;20490;-71
2021/09/15 00:19:21;;;;;;;11.02;8.18;;;;;;;19.06;97.27;98522.31;5053068;28;20035;-71
2021/09/15 00:21:46;;;;;;;10.10;8.05;;;;;;;19.09;97.01;98530.00;5036875;28;20616;-72
2021/09/15 00:24:12;;;;;;;9.90;7.93;;;;;;;19.18;97.08;98536.66;5051103;28;20029;-70
2021/09/15 00:26:37;;;;;;;9.27;7.45;;;;;;;19.05;96.84;98518.75;5049834;28;20187;-71
2021/09/15 00:29:02;;;;;;;9.38;7.30;;;;;;;19.21;97.08;98538.88;5034344;28;20025;-70
2021/09/15 00:31:28;;;;;;;10.13;7.32;;;;;;;19.29;96.20;98525.75;5053063;28;20585;-71
2021/09/15 00:33:53;;;;;;;10.18;6.80;;;;;;;19.31;96.29;98535.34;5035063;28;20048;-72
2021/09/15 00:36:18;;;;;;;9.73;7.40;;;;;;;19.18;96.25;98519.38;5051942;28;20433;-72
2021/09/15 00:38:44;;;;;;;10.43;7.00;;;;;;;19.03;96.56;98500.94;5051568;28;20051;-71
2021/09/15 00:41:09;;;;;;;10.40;7.63;;;;;;;19.18;97.20;98522.94;5053431;28;20822;-70
2021/09/15 00:43:58;;;;;;;11.35;7.13;;;;;;;19.10;97.35;98503.41;5051709;28;20029;-71
2021/09/15 00:46:23;;;;;;;10.00;7.53;;;;;;;19.11;97.44;98519.63;5034099;28;20506;-72
2021/09/15 00:48:48;;;;;;;10.38;8.18;;;;;;;19.11;97.44;98530.59;5051820;28;20056;-72
2021/09/15 00:51:14;;;;;;;11.15;7.70;;;;;;;19.01;97.52;98531.34;5051760;28;20021;-70
2021/09/15 00:53:40;;;;;;;10.00;7.70;;;;;;;18.96;97.80;98525.81;5050437;28;20029;-71
2021/09/15 00:56:05;;;;;;;11.57;8.65;;;;;;;18.92;98.22;98526.63;5050551;28;20079;-70
2021/09/15 00:58:30;;;;;;;10.20;7.78;;;;;;;18.93;97.97;98520.88;5033215;28;20045;-70
2021/09/15 01:00:56;;;;;;;12.05;7.53;;;;;;;18.93;97.46;98515.38;5055449;28;20438;-71
2021/09/15 01:03:21;;;;;;;11.45;8.23;;;;;;;18.93;97.92;98518.13;5033851;28;20028;-71
2021/09/15 01:05:46;;;;;;;10.73;8.05;;;;;;;19.00;97.48;98529.69;5050330;28;20033;-71
2021/09/15 01:08:14;;;;;;;12.95;8.00;;;;;;;18.85;98.00;98504.09;5055725;28;20029;-70
2021/09/15 01:10:40;;;;;;;9.77;8.05;;;;;;;18.96;97.98;98519.53;5035539;28;20425;-72
2021/09/15 01:13:06;;;;;;;11.68;8.85;;;;;;;18.94;98.16;98507.97;5046810;28;20163;-70
2021/09/15 01:15:31;;;;;;;11.77;7.90;;;;;;;18.84;98.38;98495.06;5053523;28;20033;-71
2021/09/15 01:17:56;;;;;;;9.32;7.93;;;;;;;18.81;98.71;98503.78;5051373;28;20033;-70
2021/09/15 01:20:22;;;;;;;13.07;8.63;;;;;;;18.83;99.18;98502.44;5055217;28;20033;-70
2021/09/15 01:22:47;;;;;;;14.82;7.75;;;;;;;19.11;97.97;98516.88;5054285;28;20024;-72
2021/09/15 01:25:12;;;;;;;11.80;7.40;;;;;;;19.17;96.44;98496.59;5057007;28;20458;-71
2021/09/15 01:27:38;;;;;;;11.02;7.60;;;;;;;19.27;96.17;98504.06;5055874;28;20029;-72
2021/09/15 01:30:05;;;;;;;8.90;7.07;;;;;;;19.24;96.21;98493.63;5035688;28;20029;-71
2021/09/15 01:32:30;;;;;;;9.57;7.38;;;;;;;19.23;95.98;98505.66;5046204;28;20075;-72
2021/09/15 01:34:55;;;;;;;11.15;8.02;;;;;;;19.26;95.82;98507.91;5054822;28;20040;-70
2021/09/15 01:37:22;;;;;;;9.55;7.88;;;;;;;19.09;96.73;98471.63;5055902;28;20033;-69
2021/09/15 01:39:47;;;;;;;9.55;7.72;;;;;;;19.03;98.72;98484.47;5037486;28;20586;-71
2021/09/15 01:42:13;;;;;;;11.40;8.38;;;;;;;18.74;100.00;98464.81;5055528;28;20115;-71
2021/09/15 01:44:41;;;;;;;12.05;8.88;;;;;;;18.79;100.00;98479.41;5056233;28;20025;-71
2021/09/15 01:47:09;;;;;;;11.13;8.05;;;;;;;18.86;100.00;98487.38;5055165;28;20024;-70
2021/09/15 01:49:36;;;;;;;12.95;8.27;;;;;;;18.72;100.00;98469.72;5054274;28;20497;-72
2021/09/15 01:52:03;;;;;;;11.07;8.30;;;;;;;18.70;100.00;98488.34;5053656;28;20032;-72
2021/09/15 01:54:30;;;;;;;9.70;8.25;;;;;;;18.61;100.00;98483.38;5063096;22;20036;-71
2021/09/15 01:56:55;;;;;;;10.63;8.48;;;;;;;18.57;100.00;98478.66;5054862;28;20096;-71
2021/09/15 01:59:20;;;;;;;11.65;8.52;;;;;;;18.60;100.00;98481.72;5040454;28;20464;-70
2021/09/15 02:01:46;;;;;;;10.68;8.57;;;;;;;18.68;100.00;98480.41;5040610;28;20025;-71
2021/09/15 02:04:11;;;;;;;12.82;8.15;;;;;;;18.65;100.00;98461.72;5062046;28;20029;-70
2021/09/15 02:06:37;;;;;;;15.63;9.05;;;;;;;18.76;100.00;98484.59;5053150;28;20599;-70
2021/09/15 02:09:06;;;;;;;9.93;8.00;;;;;;;18.85;100.00;98465.72;5054511;28;20033;-70
2021/09/15 02:11:32;;;;;;;11.88;7.50;;;;;;;18.87;100.00;98441.63;5051300;28;20025;-71
2021/09/15 02:13:58;;;;;;;9.88;7.13;;;;;;;18.97;98.72;98442.50;5035310;28;20029;-70
2021/09/15 02:16:24;;;;;;;9.75;6.93;;;;;;;19.01;100.00;98464.72;5052951;28;20024;-70
2021/09/15 02:18:49;;;;;;;14.20;9.23;;;;;;;18.85;100.00;98452.03;5054383;28;20037;-71
2021/09/15 02:21:15;;;;;;;13.93;8.43;;;;;;;18.72;100.00;98467.00;5033027;28;20881;-72
2021/09/15 02:23:40;;;;;;;11.82;8.65;;;;;;;18.72;100.00;98462.34;5038838;28;20025;-71
2021/09/15 02:26:06;;;;;;;9.82;7.57;;;;;;;18.66;100.00;98463.41;5053533;28;20055;-70
2021/09/15 02:28:31;;;;;;;11.00;8.07;;;;;;;18.66;100.00;98462.59;5035090;28;20394;-70
2021/09/15 02:30:56;;;;;;;11.77;7.82;;;;;;;18.65;100.00;98452.69;5037226;28;20025;-71
2021/09/15 02:33:22;;;;;;;10.77;8.27;;;;;;;18.81;100.00;98462.69;5053908;28;20027;-70
2021/09/15 02:35:47;;;;;;;11.20;8.63;;;;;;;18.76;100.00;98468.97;5042051;28;20892;-70
2021/09/15 02:38:13;;;;;;;12.90;9.45;;;;;;;18.51;100.00;98439.47;5054965;28;20021;-71
2021/09/15 02:40:38;;;;;;;14.57;8.88;;;;;;;18.61;100.00;98461.44;5037509;28;20387;-71
2021/09/15 02:43:03;;;;;;;12.57;8.52;;;;;;;18.57;100.00;98456.75;5052247;28;20102;-71
2021/09/15 02:45:29;;;;;;;13.02;9.10;;;;;;;18.54;100.00;98460.84;5040682;28;20037;-71
2021/09/15 02:47:54;;;;;;;11.02;8.88;;;;;;;18.50;100.00;98448.78;5035353;28;20032;-70
2021/09/15 02:50:19;;;;;;;11.32;8.63;;;;;;;18.51;100.00;98453.16;5036634;28;20064;-71
2021/09/15 02:52:45;;;;;;;14.73;9.18;;;;;;;18.54;100.00;98457.28;5033586;28;20025;-70
2021/09/15 02:55:10;;;;;;;12.70;8.65;;;;;;;18.67;100.00;98459.56;5051710;28;20033;-70
2021/09/15 02:57:35;;;;;;;10.30;8.25;;;;;;;18.68;100.00;98452.16;5054862;28;20037;-70
2021/09/15 03:00:01;;;;;;;10.75;8.30;;;;;;;18.66;100.00;98451.63;5054556;28;20479;-70
2021/09/15 03:02:26;;;;;;;12.80;8.75;;;;;;;18.78;100.00;98461.28;5034628;28;20108;-70
2021/09/15 03:04:51;;;;;;;13.32;8.80;;;;;;;18.73;100.00;98452.19;5047822;28;20032;-71
2021/09/15 03:07:17;;;;;;;10.77;8.27;;;;;;;18.69;100.00;98440.13;5052133;28;20029;-71
2021/09/15 03:09:42;;;;;;;11.68;9.07;;;;;;;18.72;100.00;98456.03;5048060;28;20466;-70
2021/09/15 03:12:07;;;;;;;9.20;8.27;;;;;;;18.68;100.00;98463.13;5051231;28;20025;-69
2021/09/15 03:14:33;;;;;;;11.88;9.25;;;;;;;18.66;100.00;98452.44;5052112;28;20024;-70
2021/09/15 03:16:58;;;;;;;12.60;9.60;;;;;;;18.61;100.00;98461.44;5051610;28;20036;-72
2021/09/15 03:19:23;;;;;;;15.65;9.20;;;;;;;18.61;100.00;98460.63;5037471;28;20021;-69
2021/09/15 03:21:49;;;;;;;14.57;9.40;;;;;;;18.54;100.00;98443.59;5048336;28;20505;-69
2021/09/15 03:24:14;;;;;;;10.82;8.25;;;;;;;18.53;100.00;98442.75;5054160;28;20028;-69
2021/09/15 03:26:40;;;;;;;13.98;8.32;;;;;;;18.46;100.00;98439.44;5046542;28;20040;-76
2021/09/15 03:29:05;;;;;;;9.65;8.30;;;;;;;18.47;100.00;98440.25;5055275;28;20021;-76
2021/09/15 03:31:30;;;;;;;12.77;8.10;;;;;;;18.66;100.00;98455.19;5054650;28;20020;-77
2021/09/15 03:33:56;;;;;;;12.60;7.90;;;;;;;18.55;100.00;98426.91;5073042;28;20032;-77
2021/09/15 03:36:21;;;;;;;10.63;7.35;;;;;;;18.73;100.00;98420.16;5046056;28;20106;-77
2021/09/15 03:38:46;;;;;;;10.93;7.45;;;;;;;18.76;100.00;98416.91;5042326;28;20109;-76
2021/09/15 03:41:12;;;;;;;13.25;7.63;;;;;;;18.76;100.00;98430.59;5071277;28;20020;-80
2021/09/15 03:43:37;;;;;;;9.30;7.85;;;;;;;18.77;100.00;98442.38;5050637;28;20116;-78
2021/09/15 03:46:03;;;;;;;9.48;7.88;;;;;;;18.50;100.00;98404.94;5047778;28;20029;-76
2021/09/15 03:48:28;;;;;;;11.15;8.57;;;;;;;18.54;100.00;98422.50;5034770;28;20469;-75
2021/09/15 03:50:53;;;;;;;14.40;8.48;;;;;;;18.70;100.00;98444.50;5052435;28;20104;-75
2021/09/15 03:53:19;;;;;;;12.27;8.68;;;;;;;18.81;100.00;98440.75;5054748;28;20112;-76
2021/09/15 03:55:44;;;;;;;11.00;8.35;;;;;;;18.71;100.00;98410.56;5048516;28;20547;-74
2021/09/15 03:58:09;;;;;;;11.55;8.07;;;;;;;18.70;100.00;98425.31;5051801;28;20489;-75
2021/09/15 04:00:35;;;;;;;10.63;8.20;;;;;;;18.72;100.00;98434.09;5067631;28;20390;-76
2021/09/15 04:03:00;;;;;;;11.98;9.05;;;;;;;18.64;100.00;98431.88;5067024;28;20067;-72
2021/09/15 04:05:25;;;;;;;13.27;8.05;;;;;;;18.64;100.00;98438.16;5054399;28;20497;-73
2021/09/15 04:07:51;;;;;;;10.82;8.98;;;;;;;18.71;100.00;98443.44;5042805;28;20406;-73
2021/09/15 04:10:16;;;;;;;13.48;8.40;;;;;;;18.70;100.00;98452.72;5056169;28;20393;-73
2021/09/15 04:12:41;;;;;;;11.98;8.68;;;;;;;18.52;100.00;98435.66;5037501;28;20481;-73
2021/09/15 04:15:07;;;;;;;11.00;8.25;;;;;;;18.47;100.00;98432.88;5052149;28;20035;-77
2021/09/15 04:17:32;;;;;;;12.52;8.85;;;;;;;18.56;100.00;98446.91;5031703;28;20108;-77
2021/09/15 04:19:58;;;;;;;11.15;7.97;;;;;;;18.43;100.00;98437.22;5049169;28;20108;-73
2021/09/15 04:22:23;;;;;;;9.45;7.40;;;;;;;18.51;100.00;98449.59;5039962;28;20098;-73
2021/09/15 04:32:58;;;;;;;12.65;8.38;;;;;;;18.44;100.00;98446.25;5057702;28;20031;-78
2021/09/15 04:35:23;;;;;;;9.27;7.30;;;;;;;18.17;100.00;98417.84;5048733;28;20043;-77
2021/09/15 04:37:49;;;;;;;11.77;8.35;;;;;;;18.38;100.00;98453.59;5025034;28;20549;-78
2021/09/15 04:40:14;;;;;;;10.90;7.97;;;;;;;18.43;100.00;98437.22;5048726;28;20478;-78
2021/09/15 04:42:39;;;;;;;12.40;7.47;;;;;;;18.52;100.00;98457.56;5052883;28;20052;-78
2021/09/15 04:45:05;;;;;;;9.00;6.63;;;;;;;18.58;100.00;98434.59;5040710;28;20021;-79
2021/09/15 04:47:30;;;;;;;12.50;7.68;;;;;;;18.56;100.00;98420.31;5040139;28;20116;-82
2021/09/15 04:49:56;;;;;;;11.55;6.85;;;;;;;18.72;100.00;98467.81;5038985;28;20021;-77
2021/09/15 04:52:21;;;;;;;14.70;7.72;;;;;;;18.69;100.00;98468.34;5052085;28;20021;-77
2021/09/15 04:54:46;;;;;;;12.05;8.80;;;;;;;18.49;100.00;98444.38;5054774;28;20039;-76
2021/09/15 04:57:12;;;;;;;9.95;8.00;;;;;;;18.48;100.00;98445.47;5055128;28;20093;-78
2021/09/15 04:59:37;;;;;;;9.13;7.57;;;;;;;18.58;100.00;98474.84;5047039;28;20033;-75
2021/09/15 05:02:02;;;;;;;13.32;7.95;;;;;;;18.51;100.00;98477.81;5049032;28;20043;-76
2021/09/15 05:04:28;;;;;;;11.45;8.23;;;;;;;18.43;100.00;98459.13;5054289;28;20058;-73
2021/09/15 05:06:55;;;;;;;15.60;8.27;;;;;;;18.43;100.00;98486.53;5055396;28;20390;-72
2021/09/15 05:09:20;;;;;;;12.30;8.93;;;;;;;18.42;100.00;98476.66;5055647;28;20033;-71
2021/09/15 05:11:45;;;;;;;11.15;7.97;;;;;;;18.40;100.00;98467.88;5055332;28;20553;-71
2021/09/15 05:14:10;;;;;;;11.25;8.40;;;;;;;18.30;100.00;98456.84;5058071;28;20037;-71
2021/09/15 05:16:36;;;;;;;13.63;8.85;;;;;;;18.37;100.00;98484.84;5053888;28;20033;-71
2021/09/15 05:19:01;;;;;;;10.65;8.88;;;;;;;18.40;100.00;98482.41;5061178;28;20116;-70
2021/09/15 05:21:27;;;;;;;14.93;8.35;;;;;;;18.33;100.00;98473.56;5055626;28;20017;-76
2021/09/15 05:23:53;;;;;;;13.63;8.20;;;;;;;18.10;100.00;98443.81;5041231;28;20082;-76
2021/09/15 05:26:18;;;;;;;12.77;9.07;;;;;;;18.26;100.00;98469.41;5055192;28;20055;-75
2021/09/15 05:28:43;;;;;;;12.32;8.40;;;;;;;18.39;100.00;98485.38;5057772;28;20025;-78
2021/09/15 05:31:09;;;;;;;15.48;9.20;;;;;;;18.45;100.00;98499.97;5048848;28;20475;-77
2021/09/15 05:33:34;;;;;;;11.95;8.00;;;;;;;18.28;100.00;98472.69;5022756;28;20030;-78
2021/09/15 05:36:00;;;;;;;10.60;7.53;;;;;;;18.47;100.00;98515.06;5038042;28;20036;-77
2021/09/15 05:38:25;;;;;;;11.90;7.28;;;;;;;18.46;100.00;98502.44;5055748;28;20485;-77
2021/09/15 05:40:50;;;;;;;10.10;7.38;;;;;;;18.55;100.00;98511.81;5029819;28;20108;-71
2021/09/15 05:43:16;;;;;;;11.25;7.70;;;;;;;18.39;100.00;98504.56;5041785;28;20470;-79
2021/09/15 05:45:41;;;;;;;16.40;8.45;;;;;;;18.49;100.00;98518.34;5043659;28;20048;-78
2021/09/15 05:48:06;;;;;;;16.75;8.25;;;;;;;18.48;100.00;98524.09;5053623;28;20017;-77
2021/09/15 05:50:32;;;;;;;13.52;7.00;;;;;;;18.23;100.00;98480.88;5031583;28;20386;-75
2021/09/15 05:52:57;;;;;;;12.32;7.60;;;;;;;18.45;100.00;98517.22;5046838;28;20076;-76
2021/09/15 05:55:22;;;;;;;14.30;7.10;;;;;;;18.64;100.00;98519.56;5056595;28;20040;-76
2021/09/15 05:57:48;;;;;;;11.05;6.55;;;;;;;18.57;100.00;98500.59;5054225;28;20090;-74
2021/09/15 06:00:13;;;;;;;9.77;7.10;;;;;;;18.64;100.00;98520.38;5056905;28;20024;-77
2021/09/15 06:02:39;;;;;;;12.68;6.32;;;;;;;18.64;100.00;98525.84;5066116;28;20485;-74
2021/09/15 06:05:05;;;;;;;18.30;6.63;;;;;;;18.67;100.00;98525.31;5034179;28;20032;-73
2021/09/15 06:07:30;;;;;;;9.25;6.53;;;;;;;18.53;100.00;98524.13;5054250;28;20032;-75
2021/09/15 06:09:55;;;;;;;17.98;7.13;;;;;;;18.53;100.00;98529.63;5054745;28;20029;-70
2021/09/15 06:12:21;;;;;;;11.25;6.53;;;;;;;18.31;100.00;98514.09;5053673;28;20039;-75
2021/09/15 06:14:46;;;;;;;11.82;7.15;;;;;;;18.34;100.00;98531.94;5053314;28;20459;-76
2021/09/15 06:17:11;;;;;;;10.88;6.63;;;;;;;18.19;100.00;98527.13;5054266;28;20016;-76
2021/09/15 06:19:36;;;;;;;8.75;6.80;;;;;;;18.15;100.00;98524.06;5054977;28;20021;-76
2021/09/15 06:22:02;;;;;;;12.23;6.68;;;;;;;18.16;100.00;98523.00;5055853;28;20044;-76
2021/09/15 06:24:27;;;;;;;9.77;6.82;;;;;;;18.13;100.00;98522.66;5050282;28;20029;-76
2021/09/15 06:26:52;;;;;;;10.75;7.57;;;;;;;18.13;100.00;98515.31;5033260;28;20394;-75
2021/09/15 06:29:18;;;;;;;10.50;7.05;;;;;;;18.17;100.00;98527.38;5072475;28;20047;-78
2021/09/15 06:31:45;;;;;;;15.27;8.05;;;;;;;18.13;100.00;98542.69;5043236;28;20032;-77
2021/09/15 06:34:11;;;;;;;13.68;7.78;;;;;;;17.95;100.00;98499.25;5057051;28;20441;-79
2021/09/15 06:36:39;;;;;;;11.90;8.20;;;;;;;18.02;100.00;98510.81;5042825;28;20024;-79
2021/09/15 06:39:05;;;;;;;12.40;8.50;;;;;;;18.05;100.00;98515.78;5049156;28;20024;-75
2021/09/15 06:41:30;;;;;;;12.10;7.90;;;;;;;18.08;100.00;98514.44;5038794;28;20029;-77
2021/09/15 06:43:56;;;;;;;13.45;7.85;;;;;;;18.18;100.00;98518.09;5040504;28;20104;-74
2021/09/15 06:46:23;;;;;;;10.48;7.43;;;;;;;18.20;100.00;98517.00;5039439;28;20037;-76
2021/09/15 06:48:48;;;;;;;21.05;9.48;;;;;;;18.33;100.00;98525.59;5054339;28;20023;-75
2021/09/15 06:51:13;;;;;;;12.38;7.50;;;;;;;18.25;100.00;98520.59;5052995;28;20028;-76
2021/09/15 06:53:39;;;;;;;13.73;7.97;;;;;;;18.46;100.00;98540.78;5035493;28;20083;-69
2021/09/15 06:56:04;;;;;;;14.88;9.25;;;;;;;18.49;100.00;98533.94;5049094;28;20036;-69
2021/09/15 06:58:29;;;;;;;12.35;6.93;;;;;;;18.55;100.00;98541.16;5063288;28;20039;-69
2021/09/15 07:00:55;;;;;;;11.35;6.43;;;;;;;18.57;100.00;98526.06;5067349;28;20017;-69
2021/09/15 07:03:20;;;;;;;11.25;6.50;;;;;;;18.61;100.00;98527.22;5060813;28;20032;-69
2021/09/15 07:05:45;;;;;;;11.30;6.45;;;;;;;18.69;100.00;98519.59;5065100;28;20108;-69
2021/09/15 07:08:11;;;;;;;13.10;6.30;;;;;;;18.62;100.00;98523.38;5055363;28;20107;-69
2021/09/15 07:10:37;;;;;;;12.82;6.32;;;;;;;18.68;100.00;98513.28;5054208;28;20434;-69
2021/09/15 07:13:03;;;;;;;11.65;6.43;;;;;;;18.72;100.00;98510.84;5058891;28;20063;-70
2021/09/15 07:15:28;;;;;;;10.77;5.70;;;;;;;18.72;100.00;98506.19;5065665;28;20028;-80
2021/09/15 07:17:54;;;;;;;12.60;5.50;;;;;;;18.81;100.00;98503.78;5032566;28;20021;-77
2021/09/15 07:20:20;;;;;;;10.32;6.07;;;;;;;18.74;100.00;98494.97;5039460;28;20028;-77
2021/09/15 07:22:45;;;;;;;8.48;5.63;;;;;;;18.58;100.00;98491.28;5060195;28;20033;-78
2021/09/15 07:25:11;;;;;;;8.20;5.45;;;;;;;18.66;100.00;98506.44;5043439;28;20159;-73
2021/09/15 07:27:37;;;;;;;8.45;5.63;;;;;;;18.62;100.00;98493.22;5044736;28;20029;-74
2021/09/15 07:30:03;;;;;;;10.45;5.82;;;;;;;18.78;100.00;98509.81;5040736;28;20029;-74
2021/09/15 07:32:28;;;;;;;10.23;6.15;;;;;;;18.71;100.00;98511.94;5054285;28;20029;-74
2021/09/15 07:34:53;;;;;;;11.68;5.78;;;;;;;18.66;100.00;98496.28;5052763;28;20135;-74
2021/09/15 07:37:19;;;;;;;13.68;5.90;;;;;;;18.60;100.00;98478.97;5034774;28;20047;-73
2021/09/15 07:39:44;;;;;;;9.07;5.80;;;;;;;18.67;100.00;98497.91;5034853;28;20052;-76
2021/09/15 07:42:10;;;;;;;10.57;5.78;;;;;;;18.52;100.00;98473.16;5052700;28;20569;-70
2021/09/15 07:44:35;;;;;;;8.13;5.43;;;;;;;18.69;100.00;98505.91;5044034;28;20104;-74
2021/09/15 07:47:01;;;;;;;9.40;4.97;;;;;;;18.68;100.00;98515.19;5070956;28;20028;-73
2021/09/15 07:49:27;;;;;;;8.98;5.80;;;;;;;18.64;100.00;98527.78;5056449;28;20033;-77
2021/09/15 07:51:53;;;;;;;10.13;5.78;;;;;;;18.58;100.00;98519.50;5060434;28;20389;-73
2021/09/15 07:54:18;;;;;;;9.35;6.75;;;;;;;18.70;100.00;98532.19;5061741;22;20024;-77
2021/09/15 07:56:43;;;;;;;11.02;6.28;;;;;;;18.49;100.00;98518.34;5037070;28;20036;-75
2021/09/15 07:59:08;;;;;;;12.98;7.13;;;;;;;18.36;100.00;98529.72;5032237;28;20071;-75
2021/09/15 08:01:34;;;;;;;10.90;6.13;;;;;;;18.49;100.00;98529.28;5037093;28;20091;-77
2021/09/15 08:03:59;;;;;;;12.05;6.63;;;;;;;18.48;100.00;98524.91;5044136;28;20030;-77
2021/09/15 08:06:25;;;;;;;9.65;6.68;;;;;;;18.55;100.00;98541.16;5038423;28;20025;-75
2021/09/15 08:08:50;;;;;;;10.00;5.55;;;;;;;18.62;100.00;98538.97;5025379;28;20478;-73
2021/09/15 08:11:15;;;;;;;15.18;5.28;;;;;;;18.50;100.00;98519.19;5029319;28;20036;-73
2021/09/15 08:13:42;;;;;;;10.45;5.43;;;;;;;18.62;100.00;98531.59;5039747;28;20089;-78
2021/09/15 08:16:07;;;;;;;7.68;4.25;;;;;;;18.62;100.00;98517.88;5033161;28;20083;-76
2021/09/15 08:18:34;;;;;;;6.30;4.30;;;;;;;18.77;100.00;98539.13;5033987;28;20022;-70
2021/09/15 08:21:00;;;;;;;9.38;4.47;;;;;;;18.96;100.00;98531.31;5030125;28;20034;-70
2021/09/15 08:23:26;;;;;;;7.18;4.68;;;;;;;18.96;100.00;98533.22;5030291;28;20028;-69
2021/09/15 08:25:52;;;;;;;9.15;4.57;;;;;;;19.02;100.00;98532.16;5030145;28;20401;-70
2021/09/15 08:28:17;;;;;;;12.32;5.13;;;;;;;19.05;100.00;98535.22;5031203;28;20037;-71
2021/09/15 08:30:43;;;;;;;11.93;5.68;;;;;;;19.02;100.00;98534.91;5032285;28;20383;-70
2021/09/15 08:33:08;;;;;;;9.02;5.47;;;;;;;18.94;100.00;98551.84;5030290;28;20394;-70
2021/09/15 08:35:33;;;;;;;7.75;6.20;;;;;;;18.98;100.00;98551.06;5034650;28;20095;-72
2021/09/15 08:37:59;;;;;;;13.05;5.75;;;;;;;18.83;100.00;98531.78;5027150;28;20121;-75
2021/09/15 08:40:25;;;;;;;12.00;6.22;;;;;;;18.85;100.00;98548.78;5029641;28;20029;-75
2021/09/15 08:42:51;;;;;;;8.10;5.30;;;;;;;18.75;100.00;98540.50;5030228;28;20051;-75
2021/09/15 08:45:16;;;;;;;10.95;5.90;;;;;;;18.87;100.00;98545.78;5019400;28;20109;-74
2021/09/15 08:47:46;;;;;;;8.05;4.45;;;;;;;19.08;100.00;98565.94;5031718;28;20033;-74
2021/09/15 08:50:14;;;;;;;11.68;5.18;;;;;;;18.93;100.00;98551.03;5030537;28;20033;-74
2021/09/15 08:52:39;;;;;;;9.68;5.53;;;;;;;19.03;100.00;98583.19;5028484;28;20036;-72
2021/09/15 08:55:06;;;;;;;8.75;5.07;;;;;;;18.89;100.00;98580.06;5030663;28;20483;-70
2021/09/15 08:57:32;;;;;;;11.48;5.10;;;;;;;18.79;100.00;98567.13;5034255;28;20125;-76
2021/09/15 08:59:58;;;;;;;9.85;5.32;;;;;;;18.83;100.00;98565.47;5033593;28;20033;-77
2021/09/15 09:02:23;;;;;;;11.32;5.10;;;;;;;18.97;100.00;98573.28;5028637;28;20034;-71
2021/09/15 09:04:49;;;;;;;14.73;4.95;;;;;;;18.88;100.00;98583.88;5028952;28;20044;-73
2021/09/15 09:07:15;;;;;;;8.57;5.05;;;;;;;18.78;100.00;98570.09;5030192;28;20029;-75
2021/09/15 09:09:48;;;;;;;9.75;5.20;;;;;;;18.94;100.00;98580.13;5031845;28;20080;-74
2021/09/15 09:12:15;;;;;;;11.27;5.30;;;;;;;18.95;100.00;98559.81;5012005;28;20060;-76
2021/09/15 09:14:40;;;;;;;8.73;4.60;;;;;;;18.98;100.00;98555.72;5023339;28;20033;-76
2021/09/15 09:17:23;;;;;;;10.80;4.88;;;;;;;19.03;100.00;98545.63;5031454;28;20116;-74
2021/09/15 09:19:49;;;;;;;10.57;5.15;;;;;;;19.11;100.00;98538.81;5021024;28;20037;-75
2021/09/15 09:22:14;;;;;;;9.73;5.40;;;;;;;19.21;100.00;98541.59;5031577;28;20034;-75
2021/09/15 09:24:52;;;;;;;12.20;5.35;;;;;;;19.46;100.00;98562.03;5032609;28;20030;-75
2021/09/15 09:27:17;;;;;;;9.30;4.97;;;;;;;19.60;100.00;98567.88;5034453;28;20037;-74
2021/09/15 09:29:42;;;;;;;10.63;4.80;;;;;;;19.79;100.00;98560.81;5026084;28;20033;-74
2021/09/15 09:32:13;;;;;;;11.05;4.88;;;;;;;19.73;100.00;98559.16;5033692;28;20104;-78
2021/09/15 09:34:48;;;;;;;7.93;4.35;;;;;;;19.90;100.00;98572.66;5032061;28;20017;-70
2021/09/15 09:37:18;;;;;;;7.72;4.95;;;;;;;19.96;100.00;98570.75;5051227;28;20028;-78
2021/09/15 09:39:47;;;;;;;7.25;4.68;;;;;;;19.96;100.00;98574.31;5031543;28;20026;-77
2021/09/15 09:42:40;;;;;;;11.73;4.82;;;;;;;19.94;100.00;98571.03;5036581;28;20040;-73
2021/09/15 09:45:05;;;;;;;10.65;4.95;;;;;;;20.02;100.00;98576.00;5020490;28;20116;-74
2021/09/15 09:47:33;;;;;;;8.90;5.47;;;;;;;19.95;100.00;98560.88;5034355;28;20174;-74
2021/09/15 09:50:00;;;;;;;9.85;4.47;;;;;;;19.84;100.00;98571.81;5034001;28;20796;-73
2021/09/15 09:52:26;;;;;;;12.05;5.03;;;;;;;19.86;100.00;98575.13;5033267;28;20105;-74
2021/09/15 09:54:58;;;;;;;9.20;4.38;;;;;;;19.81;100.00;98569.63;5031351;28;20128;-72
2021/09/15 09:57:24;;;;;;;10.60;5.25;;;;;;;19.64;100.00;98578.03;5033706;28;20378;-72
2021/09/15 09:59:50;;;;;;;9.20;4.40;;;;;;;19.59;100.00;98579.91;5034426;28;20022;-76
2021/09/15 10:02:16;;;;;;;10.35;4.68;;;;;;;19.56;100.00;98575.78;5033304;28;20030;-71
2021/09/15 10:04:42;;;;;;;8.45;4.72;;;;;;;19.57;100.00;98573.88;5033245;28;20083;-76
2021/09/15 10:07:08;;;;;;;9.02;6.03;;;;;;;19.51;100.00;98580.44;5033086;28;20022;-72
2021/09/15 10:09:36;;;;;;;9.70;5.35;;;;;;;19.49;100.00;98577.94;5030933;28;20475;-76
2021/09/15 10:12:02;;;;;;;7.27;4.50;;;;;;;19.51;100.00;98573.03;5018039;28;20037;-70
2021/09/15 10:14:29;;;;;;;7.07;3.92;;;;;;;19.63;100.00;98567.31;5027173;28;20032;-73
2021/09/15 10:16:57;;;;;;;13.07;5.05;;;;;;;19.65;100.00;98573.38;5033897;28;20433;-75
2021/09/15 10:19:29;;;;;;;8.52;4.30;;;;;;;19.80;99.56;98576.19;5033121;28;20155;-70
2021/09/15 10:22:03;;;;;;;10.60;4.20;;;;;;;19.91;97.75;98575.16;5029581;28;20026;-71
2021/09/15 10:24:47;;;;;;;9.05;4.72;;;;;;;20.04;97.45;98581.19;5027323;28;20087;-70
2021/09/15 10:27:13;;;;;;;10.57;4.15;;;;;;;20.26;97.29;98575.50;5033734;28;20157;-71
2021/09/15 10:29:40;;;;;;;7.80;4.53;;;;;;;20.38;96.89;98573.31;5031648;28;20112;-71
2021/09/15 10:32:06;;;;;;;10.70;4.32;;;;;;;20.51;95.42;98569.19;5033038;28;20026;-71
2021/09/15 10:34:40;;;;;;;9.82;3.55;;;;;;;20.80;94.62;98580.50;5032591;28;20033;-70
2021/09/15 10:37:12;;;;;;;9.07;4.05;;;;;;;21.27;90.67;98564.75;5032291;28;20029;-70
2021/09/15 10:40:08;;;;;;;6.00;3.50;;;;;;;21.56;87.83;98567.72;5031599;28;20087;-71
2021/09/15 10:45:16;;;;;;;6.72;3.33;;;;;;;22.50;81.95;98560.31;5027133;28;20041;-71
2021/09/15 10:48:10;;;;;;;6.80;3.15;;;;;;;22.86;79.79;98562.78;5028999;28;20112;-71
2021/09/15 10:50:37;;;;;;;6.40;3.33;;;;;;;23.38;76.09;98557.59;5019178;28;20044;-70
2021/09/15 10:53:10;;;;;;;5.55;3.00;;;;;;;23.45;75.26;98546.19;5029751;28;20116;-71
2021/09/15 10:55:44;;;;;;;4.88;2.95;;;;;;;22.92;75.56;98536.81;5029418;28;20459;-71
2021/09/15 10:58:16;;;;;;;5.00;2.95;;;;;;;23.29;75.91;98551.91;5028882;28;20530;-73
2021/09/15 11:00:47;;;;;;;9.43;3.10;;;;;;;23.14;76.85;98561.19;5029174;28;20037;-69
2021/09/15 11:03:27;;;;;;;6.50;3.13;;;;;;;23.23;75.37;98543.97;5028674;28;20025;-69
2021/09/15 11:05:53;;;;;;;8.02;3.13;;;;;;;23.52;72.37;98554.97;5026821;28;20750;-69
2021/09/15 11:08:33;;;;;;;8.93;3.60;;;;;;;23.43;74.45;98549.28;5029996;28;20021;-70
2021/09/15 11:11:00;;;;;;;4.03;2.67;;;;;;;23.28;74.65;98541.97;5029633;28;20021;-69
2021/09/15 11:13:25;;;;;;;3.88;2.55;;;;;;;23.30;72.58;98550.78;5029745;28;20041;-68
2021/09/15 11:15:53;;;;;;;7.00;3.00;;;;;;;22.90;73.78;98552.84;5026632;28;20033;-68
2021/09/15 11:18:24;;;;;;;5.88;3.00;;;;;;;23.00;74.83;98543.66;5028699;28;20283;-69
2021/09/15 11:20:59;;;;;;;7.50;2.83;;;;;;;23.12;73.88;98543.25;5029313;28;20037;-70
2021/09/15 11:23:26;;;;;;;5.43;3.20;;;;;;;23.21;74.96;98529.63;5029173;28;20491;-69
2021/09/15 11:25:52;;;;;;;8.35;3.20;;;;;;;23.06;73.17;98509.38;5029559;28;20115;-68
2021/09/15 11:28:19;;;;;;;5.90;2.88;;;;;;;23.29;72.89;98543.63;5029175;28;20432;-69
2021/09/15 11:30:50;;;;;;;5.72;2.90;;;;;;;23.26;72.33;98538.69;5028633;28;20605;-68